sensor_id;sensor_type;location;lat;lon;timestamp;temperature;humidity
32524;DHT22;18965;52.242;20.886;2023-03-16T00:02:18;2.50;70.10
32524;DHT22;18965;52.242;20.886;2023-03-16T00:04:44;2.40;70.10
32524;DHT22;18965;52.242;20.886;2023-03-16T00:07:13;2.40;70.20
32524;DHT22;18965;52.242;20.886;2023-03-16T00:09:39;2.40;70.30
32524;DHT22;18965;52.242;20.886;2023-03-16T00:12:09;2.30;70.30
32524;DHT22;18965;52.242;20.886;2023-03-16T00:14:40;2.30;70.30
32524;DHT22;18965;52.242;20.886;2023-03-16T00:17:09;2.30;70.40
32524;DHT22;18965;52.242;20.886;2023-03-16T00:19:35;2.20;70.50
32524;DHT22;18965;52.242;20.886;2023-03-16T00:22:00;2.20;70.50
32524;DHT22;18965;52.242;20.886;2023-03-16T00:24:26;2.20;70.50
32524;DHT22;18965;52.242;20.886;2023-03-16T00:26:52;2.10;70.50
32524;DHT22;18965;52.242;20.886;2023-03-16T00:29:19;2.10;70.60
32524;DHT22;18965;52.242;20.886;2023-03-16T00:31:47;2.10;70.70
32524;DHT22;18965;52.242;20.886;2023-03-16T00:34:13;2.10;70.80
32524;DHT22;18965;52.242;20.886;2023-03-16T00:36:40;2.10;70.90
32524;DHT22;18965;52.242;20.886;2023-03-16T00:39:07;2.00;70.80
32524;DHT22;18965;52.242;20.886;2023-03-16T00:41:35;2.00;70.90
32524;DHT22;18965;52.242;20.886;2023-03-16T00:44:05;2.00;70.90
32524;DHT22;18965;52.242;20.886;2023-03-16T00:46:31;2.00;70.90
32524;DHT22;18965;52.242;20.886;2023-03-16T00:48:57;1.90;71.00
32524;DHT22;18965;52.242;20.886;2023-03-16T00:51:22;1.90;71.10
32524;DHT22;18965;52.242;20.886;2023-03-16T00:53:48;1.90;71.10
32524;DHT22;18965;52.242;20.886;2023-03-16T00:56:15;1.90;71.20
32524;DHT22;18965;52.242;20.886;2023-03-16T00:58:41;1.90;71.20
32524;DHT22;18965;52.242;20.886;2023-03-16T01:01:10;1.80;71.20
32524;DHT22;18965;52.242;20.886;2023-03-16T01:03:38;1.80;71.30
32524;DHT22;18965;52.242;20.886;2023-03-16T01:06:05;1.80;71.30
32524;DHT22;18965;52.242;20.886;2023-03-16T01:08:31;1.80;71.40
32524;DHT22;18965;52.242;20.886;2023-03-16T01:11:05;1.70;71.40
32524;DHT22;18965;52.242;20.886;2023-03-16T01:13:32;1.70;71.40
32524;DHT22;18965;52.242;20.886;2023-03-16T01:15:59;1.70;71.50
32524;DHT22;18965;52.242;20.886;2023-03-16T01:18:26;1.70;71.50
32524;DHT22;18965;52.242;20.886;2023-03-16T01:20:52;1.60;71.60
32524;DHT22;18965;52.242;20.886;2023-03-16T01:23:21;1.60;71.60
32524;DHT22;18965;52.242;20.886;2023-03-16T01:25:47;1.60;71.70
32524;DHT22;18965;52.242;20.886;2023-03-16T01:28:20;1.60;71.80
32524;DHT22;18965;52.242;20.886;2023-03-16T01:30:49;1.60;71.80
32524;DHT22;18965;52.242;20.886;2023-03-16T01:33:19;1.50;71.80
32524;DHT22;18965;52.242;20.886;2023-03-16T01:36:00;1.50;71.90
32524;DHT22;18965;52.242;20.886;2023-03-16T01:38:26;1.50;72.00
32524;DHT22;18965;52.242;20.886;2023-03-16T01:40:53;1.50;72.10
32524;DHT22;18965;52.242;20.886;2023-03-16T01:43:21;1.50;72.10
32524;DHT22;18965;52.242;20.886;2023-03-16T01:48:39;1.50;72.20
32524;DHT22;18965;52.242;20.886;2023-03-16T01:51:11;1.40;72.10
32524;DHT22;18965;52.242;20.886;2023-03-16T01:53:41;1.40;72.10
32524;DHT22;18965;52.242;20.886;2023-03-16T01:56:10;1.40;72.20
32524;DHT22;18965;52.242;20.886;2023-03-16T01:58:39;1.40;72.30
32524;DHT22;18965;52.242;20.886;2023-03-16T02:01:06;1.40;72.30
32524;DHT22;18965;52.242;20.886;2023-03-16T02:03:32;1.40;72.40
32524;DHT22;18965;52.242;20.886;2023-03-16T02:06:01;1.30;72.40
32524;DHT22;18965;52.242;20.886;2023-03-16T02:08:30;1.30;72.40
32524;DHT22;18965;52.242;20.886;2023-03-16T02:10:56;1.30;72.50
32524;DHT22;18965;52.242;20.886;2023-03-16T02:13:23;1.30;72.60
32524;DHT22;18965;52.242;20.886;2023-03-16T02:15:51;1.20;72.60
32524;DHT22;18965;52.242;20.886;2023-03-16T02:18:18;1.20;72.70
32524;DHT22;18965;52.242;20.886;2023-03-16T02:20:53;1.20;72.80
32524;DHT22;18965;52.242;20.886;2023-03-16T02:23:23;1.20;72.90
32524;DHT22;18965;52.242;20.886;2023-03-16T02:31:01;1.20;73.00
32524;DHT22;18965;52.242;20.886;2023-03-16T02:33:29;1.20;73.00
32524;DHT22;18965;52.242;20.886;2023-03-16T02:35:56;1.10;73.00
32524;DHT22;18965;52.242;20.886;2023-03-16T02:38:22;1.10;73.10
32524;DHT22;18965;52.242;20.886;2023-03-16T02:40:58;1.10;73.10
32524;DHT22;18965;52.242;20.886;2023-03-16T02:43:29;1.10;73.90
32524;DHT22;18965;52.242;20.886;2023-03-16T02:45:59;1.10;73.20
32524;DHT22;18965;52.242;20.886;2023-03-16T02:48:37;1.10;73.30
32524;DHT22;18965;52.242;20.886;2023-03-16T02:51:07;1.10;73.30
32524;DHT22;18965;52.242;20.886;2023-03-16T02:53:33;1.10;73.40
32524;DHT22;18965;52.242;20.886;2023-03-16T02:55:59;1.00;73.40
32524;DHT22;18965;52.242;20.886;2023-03-16T02:58:27;1.10;73.50
32524;DHT22;18965;52.242;20.886;2023-03-16T03:00:54;1.00;73.60
32524;DHT22;18965;52.242;20.886;2023-03-16T03:03:19;1.00;73.60
32524;DHT22;18965;52.242;20.886;2023-03-16T03:05:46;1.00;73.70
32524;DHT22;18965;52.242;20.886;2023-03-16T03:08:11;1.10;73.80
32524;DHT22;18965;52.242;20.886;2023-03-16T03:10:37;1.00;73.70
32524;DHT22;18965;52.242;20.886;2023-03-16T03:13:03;1.00;73.80
32524;DHT22;18965;52.242;20.886;2023-03-16T03:15:32;1.00;73.70
32524;DHT22;18965;52.242;20.886;2023-03-16T03:17:58;1.00;73.70
32524;DHT22;18965;52.242;20.886;2023-03-16T03:20:24;1.00;73.70
32524;DHT22;18965;52.242;20.886;2023-03-16T03:22:50;1.00;73.80
32524;DHT22;18965;52.242;20.886;2023-03-16T03:25:20;1.00;73.70
32524;DHT22;18965;52.242;20.886;2023-03-16T03:27:48;1.00;73.80
32524;DHT22;18965;52.242;20.886;2023-03-16T03:30:19;1.00;73.90
32524;DHT22;18965;52.242;20.886;2023-03-16T03:32:46;1.00;74.00
32524;DHT22;18965;52.242;20.886;2023-03-16T03:35:13;1.00;74.10
32524;DHT22;18965;52.242;20.886;2023-03-16T03:37:40;1.00;74.00
32524;DHT22;18965;52.242;20.886;2023-03-16T03:40:08;0.90;74.00
32524;DHT22;18965;52.242;20.886;2023-03-16T03:42:35;0.90;74.10
32524;DHT22;18965;52.242;20.886;2023-03-16T03:45:01;0.90;74.10
32524;DHT22;18965;52.242;20.886;2023-03-16T03:47:27;0.90;74.10
32524;DHT22;18965;52.242;20.886;2023-03-16T03:49:53;0.90;74.10
32524;DHT22;18965;52.242;20.886;2023-03-16T03:52:19;0.90;74.10
32524;DHT22;18965;52.242;20.886;2023-03-16T03:54:45;0.90;74.10
32524;DHT22;18965;52.242;20.886;2023-03-16T03:57:11;0.90;74.20
32524;DHT22;18965;52.242;20.886;2023-03-16T03:59:36;0.90;74.20
32524;DHT22;18965;52.242;20.886;2023-03-16T04:02:10;0.90;74.30
32524;DHT22;18965;52.242;20.886;2023-03-16T04:04:36;0.80;74.30
32524;DHT22;18965;52.242;20.886;2023-03-16T04:07:02;0.80;74.40
32524;DHT22;18965;52.242;20.886;2023-03-16T04:09:28;0.80;74.50
32524;DHT22;18965;52.242;20.886;2023-03-16T04:11:54;0.80;74.50
32524;DHT22;18965;52.242;20.886;2023-03-16T04:14:22;0.80;74.50
32524;DHT22;18965;52.242;20.886;2023-03-16T04:16:48;0.80;74.60
32524;DHT22;18965;52.242;20.886;2023-03-16T04:19:13;0.90;74.80
32524;DHT22;18965;52.242;20.886;2023-03-16T04:21:39;0.90;74.80
32524;DHT22;18965;52.242;20.886;2023-03-16T04:24:05;0.90;74.80
32524;DHT22;18965;52.242;20.886;2023-03-16T04:26:31;0.90;74.80
32524;DHT22;18965;52.242;20.886;2023-03-16T04:28:59;0.80;74.70
32524;DHT22;18965;52.242;20.886;2023-03-16T04:31:25;0.80;74.80
32524;DHT22;18965;52.242;20.886;2023-03-16T04:33:50;0.90;74.80
32524;DHT22;18965;52.242;20.886;2023-03-16T04:36:19;0.90;74.80
32524;DHT22;18965;52.242;20.886;2023-03-16T04:38:49;0.80;74.70
32524;DHT22;18965;52.242;20.886;2023-03-16T04:41:16;0.80;74.70
32524;DHT22;18965;52.242;20.886;2023-03-16T04:43:42;0.80;74.80
32524;DHT22;18965;52.242;20.886;2023-03-16T04:46:08;0.80;74.70
32524;DHT22;18965;52.242;20.886;2023-03-16T04:48:34;0.80;74.80
32524;DHT22;18965;52.242;20.886;2023-03-16T04:51:01;0.80;74.80
32524;DHT22;18965;52.242;20.886;2023-03-16T04:53:29;0.80;74.80
32524;DHT22;18965;52.242;20.886;2023-03-16T04:55:56;0.80;74.90
32524;DHT22;18965;52.242;20.886;2023-03-16T04:58:23;0.80;74.80
32524;DHT22;18965;52.242;20.886;2023-03-16T05:00:53;0.80;74.90
32524;DHT22;18965;52.242;20.886;2023-03-16T05:03:20;0.80;74.90
32524;DHT22;18965;52.242;20.886;2023-03-16T05:05:46;0.80;74.90
32524;DHT22;18965;52.242;20.886;2023-03-16T05:08:13;0.80;74.90
32524;DHT22;18965;52.242;20.886;2023-03-16T05:10:38;0.80;75.00
32524;DHT22;18965;52.242;20.886;2023-03-16T05:13:06;0.90;75.10
32524;DHT22;18965;52.242;20.886;2023-03-16T05:15:32;0.90;75.20
32524;DHT22;18965;52.242;20.886;2023-03-16T05:17:58;1.00;75.20
32524;DHT22;18965;52.242;20.886;2023-03-16T05:20:24;1.00;75.20
32524;DHT22;18965;52.242;20.886;2023-03-16T05:22:50;1.00;75.20
32524;DHT22;18965;52.242;20.886;2023-03-16T05:25:18;1.00;75.30
32524;DHT22;18965;52.242;20.886;2023-03-16T05:27:46;1.10;75.30
32524;DHT22;18965;52.242;20.886;2023-03-16T05:30:12;1.20;75.50
32524;DHT22;18965;52.242;20.886;2023-03-16T05:32:38;1.20;75.40
32524;DHT22;18965;52.242;20.886;2023-03-16T05:35:05;1.30;75.60
32524;DHT22;18965;52.242;20.886;2023-03-16T05:37:32;1.40;75.50
32524;DHT22;18965;52.242;20.886;2023-03-16T05:39:59;1.50;75.40
32524;DHT22;18965;52.242;20.886;2023-03-16T05:42:24;1.60;75.30
32524;DHT22;18965;52.242;20.886;2023-03-16T05:44:53;1.70;75.20
32524;DHT22;18965;52.242;20.886;2023-03-16T05:47:19;1.70;75.10
32524;DHT22;18965;52.242;20.886;2023-03-16T05:49:45;1.80;75.20
32524;DHT22;18965;52.242;20.886;2023-03-16T05:52:11;1.80;75.10
32524;DHT22;18965;52.242;20.886;2023-03-16T05:54:37;1.90;75.20
32524;DHT22;18965;52.242;20.886;2023-03-16T05:57:02;1.90;75.10
32524;DHT22;18965;52.242;20.886;2023-03-16T05:59:31;1.90;75.10
32524;DHT22;18965;52.242;20.886;2023-03-16T06:01:57;2.00;75.00
32524;DHT22;18965;52.242;20.886;2023-03-16T06:04:22;2.10;75.10
32524;DHT22;18965;52.242;20.886;2023-03-16T06:06:48;2.10;75.10
32524;DHT22;18965;52.242;20.886;2023-03-16T06:09:14;2.20;75.00
32524;DHT22;18965;52.242;20.886;2023-03-16T06:11:39;2.20;75.00
32524;DHT22;18965;52.242;20.886;2023-03-16T06:14:05;2.30;75.00
32524;DHT22;18965;52.242;20.886;2023-03-16T06:16:31;2.40;75.00
32524;DHT22;18965;52.242;20.886;2023-03-16T06:18:57;2.40;75.00
32524;DHT22;18965;52.242;20.886;2023-03-16T06:21:23;2.50;75.00
32524;DHT22;18965;52.242;20.886;2023-03-16T06:23:49;2.60;74.90
32524;DHT22;18965;52.242;20.886;2023-03-16T06:26:15;2.60;74.80
32524;DHT22;18965;52.242;20.886;2023-03-16T06:28:41;2.70;74.80
32524;DHT22;18965;52.242;20.886;2023-03-16T06:31:06;2.70;74.70
32524;DHT22;18965;52.242;20.886;2023-03-16T06:33:32;2.80;74.70
32524;DHT22;18965;52.242;20.886;2023-03-16T06:35:58;2.80;74.70
32524;DHT22;18965;52.242;20.886;2023-03-16T06:38:23;2.90;74.70
32524;DHT22;18965;52.242;20.886;2023-03-16T06:40:53;3.00;74.70
32524;DHT22;18965;52.242;20.886;2023-03-16T06:43:19;3.10;74.70
32524;DHT22;18965;52.242;20.886;2023-03-16T06:45:45;3.10;74.60
32524;DHT22;18965;52.242;20.886;2023-03-16T06:48:11;3.20;74.50
32524;DHT22;18965;52.242;20.886;2023-03-16T06:50:36;3.20;74.50
32524;DHT22;18965;52.242;20.886;2023-03-16T06:53:02;3.30;74.40
32524;DHT22;18965;52.242;20.886;2023-03-16T06:55:28;3.40;74.40
32524;DHT22;18965;52.242;20.886;2023-03-16T06:57:53;3.40;74.30
32524;DHT22;18965;52.242;20.886;2023-03-16T07:00:20;3.50;74.30
32524;DHT22;18965;52.242;20.886;2023-03-16T07:02:46;3.60;74.20
32524;DHT22;18965;52.242;20.886;2023-03-16T07:05:11;3.60;74.00
32524;DHT22;18965;52.242;20.886;2023-03-16T07:07:49;3.70;74.00
32524;DHT22;18965;52.242;20.886;2023-03-16T07:10:16;3.70;73.80
32524;DHT22;18965;52.242;20.886;2023-03-16T07:12:42;3.70;73.80
32524;DHT22;18965;52.242;20.886;2023-03-16T07:15:09;3.80;74.50
32524;DHT22;18965;52.242;20.886;2023-03-16T07:17:35;3.90;73.80
32524;DHT22;18965;52.242;20.886;2023-03-16T07:20:01;3.90;73.70
32524;DHT22;18965;52.242;20.886;2023-03-16T07:22:30;4.00;73.70
32524;DHT22;18965;52.242;20.886;2023-03-16T07:24:57;4.00;73.60
32524;DHT22;18965;52.242;20.886;2023-03-16T07:27:28;4.10;73.50
32524;DHT22;18965;52.242;20.886;2023-03-16T07:29:55;4.20;73.40
32524;DHT22;18965;52.242;20.886;2023-03-16T07:32:26;4.20;73.20
32524;DHT22;18965;52.242;20.886;2023-03-16T07:34:57;4.30;73.10
32524;DHT22;18965;52.242;20.886;2023-03-16T07:37:24;4.30;73.00
32524;DHT22;18965;52.242;20.886;2023-03-16T07:39:50;4.30;72.80
32524;DHT22;18965;52.242;20.886;2023-03-16T07:42:16;4.40;72.90
32524;DHT22;18965;52.242;20.886;2023-03-16T07:44:42;4.50;72.90
32524;DHT22;18965;52.242;20.886;2023-03-16T07:47:11;4.50;72.90
32524;DHT22;18965;52.242;20.886;2023-03-16T07:49:37;4.60;73.70
32524;DHT22;18965;52.242;20.886;2023-03-16T07:52:03;4.60;72.80
32524;DHT22;18965;52.242;20.886;2023-03-16T07:54:29;4.70;72.70
32524;DHT22;18965;52.242;20.886;2023-03-16T07:56:55;4.70;72.50
32524;DHT22;18965;52.242;20.886;2023-03-16T07:59:21;4.80;72.70
32524;DHT22;18965;52.242;20.886;2023-03-16T08:01:46;4.80;72.80
32524;DHT22;18965;52.242;20.886;2023-03-16T08:04:13;4.90;72.70
32524;DHT22;18965;52.242;20.886;2023-03-16T08:06:39;4.90;72.60
32524;DHT22;18965;52.242;20.886;2023-03-16T08:09:04;5.00;72.50
32524;DHT22;18965;52.242;20.886;2023-03-16T08:11:30;5.10;72.30
32524;DHT22;18965;52.242;20.886;2023-03-16T08:13:56;5.10;72.30
32524;DHT22;18965;52.242;20.886;2023-03-16T08:16:25;5.20;72.40
32524;DHT22;18965;52.242;20.886;2023-03-16T08:18:51;5.30;72.30
32524;DHT22;18965;52.242;20.886;2023-03-16T08:21:18;5.40;72.40
32524;DHT22;18965;52.242;20.886;2023-03-16T08:23:44;5.40;72.10
32524;DHT22;18965;52.242;20.886;2023-03-16T08:26:17;5.50;72.00
32524;DHT22;18965;52.242;20.886;2023-03-16T08:28:44;5.50;72.00
32524;DHT22;18965;52.242;20.886;2023-03-16T08:31:11;5.60;71.90
32524;DHT22;18965;52.242;20.886;2023-03-16T08:33:38;5.60;71.70
32524;DHT22;18965;52.242;20.886;2023-03-16T08:36:05;5.70;71.60
32524;DHT22;18965;52.242;20.886;2023-03-16T08:38:31;5.70;71.50
32524;DHT22;18965;52.242;20.886;2023-03-16T08:40:58;5.80;71.40
32524;DHT22;18965;52.242;20.886;2023-03-16T08:43:24;5.80;71.40
32524;DHT22;18965;52.242;20.886;2023-03-16T08:45:51;5.80;71.40
32524;DHT22;18965;52.242;20.886;2023-03-16T08:48:18;5.90;71.40
32524;DHT22;18965;52.242;20.886;2023-03-16T08:50:45;6.00;71.20
32524;DHT22;18965;52.242;20.886;2023-03-16T08:53:13;6.00;71.20
32524;DHT22;18965;52.242;20.886;2023-03-16T08:55:40;6.10;71.10
32524;DHT22;18965;52.242;20.886;2023-03-16T08:58:10;6.10;70.90
32524;DHT22;18965;52.242;20.886;2023-03-16T09:00:37;6.20;71.00
32524;DHT22;18965;52.242;20.886;2023-03-16T09:03:04;6.20;70.90
32524;DHT22;18965;52.242;20.886;2023-03-16T09:05:30;6.20;70.80
32524;DHT22;18965;52.242;20.886;2023-03-16T09:07:57;6.20;70.80
32524;DHT22;18965;52.242;20.886;2023-03-16T09:10:23;6.30;70.70
32524;DHT22;18965;52.242;20.886;2023-03-16T09:12:50;6.40;70.80
32524;DHT22;18965;52.242;20.886;2023-03-16T09:15:17;6.40;70.60
32524;DHT22;18965;52.242;20.886;2023-03-16T09:17:44;6.50;70.40
32524;DHT22;18965;52.242;20.886;2023-03-16T09:20:11;6.60;70.30
32524;DHT22;18965;52.242;20.886;2023-03-16T09:22:37;6.60;70.00
32524;DHT22;18965;52.242;20.886;2023-03-16T09:25:06;6.70;70.00
32524;DHT22;18965;52.242;20.886;2023-03-16T09:27:33;6.80;69.80
32524;DHT22;18965;52.242;20.886;2023-03-16T09:30:02;6.90;69.30
32524;DHT22;18965;52.242;20.886;2023-03-16T09:32:28;6.90;69.40
32524;DHT22;18965;52.242;20.886;2023-03-16T09:34:55;6.90;69.20
32524;DHT22;18965;52.242;20.886;2023-03-16T09:37:21;7.00;68.90
32524;DHT22;18965;52.242;20.886;2023-03-16T09:39:48;7.00;68.90
32524;DHT22;18965;52.242;20.886;2023-03-16T09:42:40;7.00;68.60
32524;DHT22;18965;52.242;20.886;2023-03-16T09:45:16;7.10;68.60
32524;DHT22;18965;52.242;20.886;2023-03-16T09:47:45;7.10;68.30
32524;DHT22;18965;52.242;20.886;2023-03-16T09:50:19;7.10;68.20
32524;DHT22;18965;52.242;20.886;2023-03-16T09:56:11;7.20;68.20
32524;DHT22;18965;52.242;20.886;2023-03-16T09:58:40;7.30;68.30
32524;DHT22;18965;52.242;20.886;2023-03-16T10:06:25;7.70;67.20
32524;DHT22;18965;52.242;20.886;2023-03-16T10:09:03;7.80;67.00
32524;DHT22;18965;52.242;20.886;2023-03-16T10:11:43;7.90;66.90
32524;DHT22;18965;52.242;20.886;2023-03-16T10:17:08;8.10;66.30
32524;DHT22;18965;52.242;20.886;2023-03-16T10:19:55;8.30;65.80
32524;DHT22;18965;52.242;20.886;2023-03-16T10:22:37;8.30;65.60
32524;DHT22;18965;52.242;20.886;2023-03-16T10:25:24;8.50;64.80
32524;DHT22;18965;52.242;20.886;2023-03-16T10:27:52;8.60;64.40
32524;DHT22;18965;52.242;20.886;2023-03-16T10:32:49;8.80;63.50
32524;DHT22;18965;52.242;20.886;2023-03-16T10:35:47;8.90;62.80
32524;DHT22;18965;52.242;20.886;2023-03-16T10:41:16;9.20;62.70
32524;DHT22;18965;52.242;20.886;2023-03-16T10:43:46;9.40;62.60
32524;DHT22;18965;52.242;20.886;2023-03-16T10:46:12;9.40;61.80
32524;DHT22;18965;52.242;20.886;2023-03-16T10:48:38;9.50;61.30
32524;DHT22;18965;52.242;20.886;2023-03-16T10:51:11;9.60;61.70
32524;DHT22;18965;52.242;20.886;2023-03-16T10:53:41;9.70;61.50
32524;DHT22;18965;52.242;20.886;2023-03-16T10:56:19;9.70;61.20
32524;DHT22;18965;52.242;20.886;2023-03-16T10:58:45;9.70;60.90
32524;DHT22;18965;52.242;20.886;2023-03-16T11:01:20;9.80;61.10
32524;DHT22;18965;52.242;20.886;2023-03-16T11:03:50;9.80;60.50
32524;DHT22;18965;52.242;20.886;2023-03-16T11:06:31;9.90;60.40
32524;DHT22;18965;52.242;20.886;2023-03-16T11:09:18;10.10;60.40
32524;DHT22;18965;52.242;20.886;2023-03-16T11:11:49;10.20;59.60
32524;DHT22;18965;52.242;20.886;2023-03-16T11:14:19;10.30;59.80
32524;DHT22;18965;52.242;20.886;2023-03-16T11:19:52;10.50;59.00
32524;DHT22;18965;52.242;20.886;2023-03-16T11:22:24;10.60;58.70
32524;DHT22;18965;52.242;20.886;2023-03-16T11:25:03;10.60;58.60
32524;DHT22;18965;52.242;20.886;2023-03-16T11:27:54;10.60;58.60
32524;DHT22;18965;52.242;20.886;2023-03-16T11:30:28;10.60;57.90
32524;DHT22;18965;52.242;20.886;2023-03-16T11:32:55;10.40;58.00
32524;DHT22;18965;52.242;20.886;2023-03-16T11:38:06;10.30;57.70
32524;DHT22;18965;52.242;20.886;2023-03-16T11:40:57;10.20;57.70
32524;DHT22;18965;52.242;20.886;2023-03-16T11:43:50;10.00;57.70
32524;DHT22;18965;52.242;20.886;2023-03-16T11:46:23;9.80;57.60
32524;DHT22;18965;52.242;20.886;2023-03-16T12:00:07;9.50;58.80
32524;DHT22;18965;52.242;20.886;2023-03-16T12:11:25;9.70;57.40
32524;DHT22;18965;52.242;20.886;2023-03-16T12:24:42;9.60;58.20
32524;DHT22;18965;52.242;20.886;2023-03-16T12:27:14;9.60;58.50
32524;DHT22;18965;52.242;20.886;2023-03-16T12:32:26;9.70;58.30
32524;DHT22;18965;52.242;20.886;2023-03-16T12:35:19;9.80;58.40
32524;DHT22;18965;52.242;20.886;2023-03-16T12:38:16;9.90;58.10
32524;DHT22;18965;52.242;20.886;2023-03-16T12:44:08;10.00;57.90
32524;DHT22;18965;52.242;20.886;2023-03-16T12:49:21;9.90;57.20
32524;DHT22;18965;52.242;20.886;2023-03-16T12:51:59;9.90;57.50
32524;DHT22;18965;52.242;20.886;2023-03-16T12:54:25;9.80;57.70
32524;DHT22;18965;52.242;20.886;2023-03-16T12:56:58;9.80;57.80
32524;DHT22;18965;52.242;20.886;2023-03-16T12:59:35;9.80;57.60
32524;DHT22;18965;52.242;20.886;2023-03-16T13:02:01;9.80;57.70
32524;DHT22;18965;52.242;20.886;2023-03-16T13:04:38;9.90;57.80
32524;DHT22;18965;52.242;20.886;2023-03-16T13:07:05;9.90;57.80
32524;DHT22;18965;52.242;20.886;2023-03-16T13:09:35;10.00;57.70
32524;DHT22;18965;52.242;20.886;2023-03-16T13:12:06;10.10;57.20
32524;DHT22;18965;52.242;20.886;2023-03-16T13:14:38;10.20;57.20
32524;DHT22;18965;52.242;20.886;2023-03-16T13:17:10;10.20;56.60
32524;DHT22;18965;52.242;20.886;2023-03-16T13:22:30;10.20;55.40
32524;DHT22;18965;52.242;20.886;2023-03-16T13:27:43;10.30;55.70
32524;DHT22;18965;52.242;20.886;2023-03-16T13:30:22;10.30;54.90
32524;DHT22;18965;52.242;20.886;2023-03-16T13:32:56;10.40;54.90
32524;DHT22;18965;52.242;20.886;2023-03-16T13:35:27;10.40;55.00
32524;DHT22;18965;52.242;20.886;2023-03-16T13:37:54;10.50;54.90
32524;DHT22;18965;52.242;20.886;2023-03-16T13:40:23;10.40;54.80
32524;DHT22;18965;52.242;20.886;2023-03-16T13:42:50;10.40;55.30
32524;DHT22;18965;52.242;20.886;2023-03-16T13:45:36;10.40;54.30
32524;DHT22;18965;52.242;20.886;2023-03-16T13:48:02;10.40;54.50
32524;DHT22;18965;52.242;20.886;2023-03-16T13:50:33;10.40;54.60
32524;DHT22;18965;52.242;20.886;2023-03-16T13:53:03;10.40;54.60
32524;DHT22;18965;52.242;20.886;2023-03-16T13:55:34;10.30;54.10
32524;DHT22;18965;52.242;20.886;2023-03-16T13:58:01;10.20;54.20
32524;DHT22;18965;52.242;20.886;2023-03-16T14:00:34;10.20;54.30
32524;DHT22;18965;52.242;20.886;2023-03-16T14:03:12;10.10;54.10
32524;DHT22;18965;52.242;20.886;2023-03-16T14:05:38;10.10;54.20
32524;DHT22;18965;52.242;20.886;2023-03-16T14:08:17;10.10;54.50
32524;DHT22;18965;52.242;20.886;2023-03-16T14:10:44;10.00;54.30
32524;DHT22;18965;52.242;20.886;2023-03-16T14:15:56;10.00;54.40
32524;DHT22;18965;52.242;20.886;2023-03-16T14:18:40;9.90;54.60
32524;DHT22;18965;52.242;20.886;2023-03-16T14:21:18;9.90;54.60
32524;DHT22;18965;52.242;20.886;2023-03-16T14:23:49;9.80;54.70
32524;DHT22;18965;52.242;20.886;2023-03-16T14:26:17;9.70;54.70
32524;DHT22;18965;52.242;20.886;2023-03-16T14:29:11;9.70;54.80
32524;DHT22;18965;52.242;20.886;2023-03-16T14:31:39;9.70;54.80
32524;DHT22;18965;52.242;20.886;2023-03-16T14:34:28;9.70;54.60
32524;DHT22;18965;52.242;20.886;2023-03-16T14:37:10;9.60;54.70
32524;DHT22;18965;52.242;20.886;2023-03-16T14:39:40;9.60;54.70
32524;DHT22;18965;52.242;20.886;2023-03-16T14:42:22;9.50;54.70
32524;DHT22;18965;52.242;20.886;2023-03-16T14:44:50;9.50;54.90
32524;DHT22;18965;52.242;20.886;2023-03-16T14:47:23;9.40;54.90
32524;DHT22;18965;52.242;20.886;2023-03-16T14:49:49;9.40;55.00
32524;DHT22;18965;52.242;20.886;2023-03-16T14:54:41;9.20;55.40
32524;DHT22;18965;52.242;20.886;2023-03-16T14:57:15;9.20;55.60
32524;DHT22;18965;52.242;20.886;2023-03-16T14:59:41;9.30;55.70
32524;DHT22;18965;52.242;20.886;2023-03-16T15:02:24;9.30;55.90
32524;DHT22;18965;52.242;20.886;2023-03-16T15:04:51;9.30;55.70
32524;DHT22;18965;52.242;20.886;2023-03-16T15:07:21;9.40;55.50
32524;DHT22;18965;52.242;20.886;2023-03-16T15:09:49;9.40;55.40
32524;DHT22;18965;52.242;20.886;2023-03-16T15:12:17;9.50;55.10
32524;DHT22;18965;52.242;20.886;2023-03-16T15:14:44;9.50;54.90
32524;DHT22;18965;52.242;20.886;2023-03-16T15:17:29;9.50;54.70
32524;DHT22;18965;52.242;20.886;2023-03-16T15:19:54;9.60;54.70
32524;DHT22;18965;52.242;20.886;2023-03-16T15:22:34;9.60;54.60
32524;DHT22;18965;52.242;20.886;2023-03-16T15:25:17;9.60;54.50
32524;DHT22;18965;52.242;20.886;2023-03-16T15:27:44;9.60;54.40
32524;DHT22;18965;52.242;20.886;2023-03-16T15:30:21;9.60;54.10
32524;DHT22;18965;52.242;20.886;2023-03-16T15:32:47;9.60;54.20
32524;DHT22;18965;52.242;20.886;2023-03-16T15:35:12;9.60;54.00
32524;DHT22;18965;52.242;20.886;2023-03-16T15:37:38;9.60;53.80
32524;DHT22;18965;52.242;20.886;2023-03-16T15:40:22;9.50;53.80
32524;DHT22;18965;52.242;20.886;2023-03-16T15:42:49;9.50;53.90
32524;DHT22;18965;52.242;20.886;2023-03-16T15:45:17;9.50;54.10
32524;DHT22;18965;52.242;20.886;2023-03-16T15:47:45;9.40;54.10
32524;DHT22;18965;52.242;20.886;2023-03-16T15:50:14;9.40;54.10
32524;DHT22;18965;52.242;20.886;2023-03-16T15:52:46;9.30;54.00
32524;DHT22;18965;52.242;20.886;2023-03-16T15:55:19;9.20;53.60
32524;DHT22;18965;52.242;20.886;2023-03-16T15:57:55;9.20;54.00
32524;DHT22;18965;52.242;20.886;2023-03-16T16:00:35;9.20;54.00
32524;DHT22;18965;52.242;20.886;2023-03-16T16:03:03;9.10;53.60
32524;DHT22;18965;52.242;20.886;2023-03-16T16:05:29;9.00;53.70
32524;DHT22;18965;52.242;20.886;2023-03-16T16:07:56;8.90;53.80
32524;DHT22;18965;52.242;20.886;2023-03-16T16:10:23;8.90;53.80
32524;DHT22;18965;52.242;20.886;2023-03-16T16:13:32;8.80;53.80
32524;DHT22;18965;52.242;20.886;2023-03-16T16:15:49;8.70;54.00
32524;DHT22;18965;52.242;20.886;2023-03-16T16:18:31;8.60;54.10
32524;DHT22;18965;52.242;20.886;2023-03-16T16:21:00;8.50;54.30
32524;DHT22;18965;52.242;20.886;2023-03-16T16:23:27;8.40;54.60
32524;DHT22;18965;52.242;20.886;2023-03-16T16:25:56;8.30;54.80
32524;DHT22;18965;52.242;20.886;2023-03-16T16:28:25;8.20;55.10
32524;DHT22;18965;52.242;20.886;2023-03-16T16:30:52;8.10;55.30
32524;DHT22;18965;52.242;20.886;2023-03-16T16:33:32;8.00;55.40
32524;DHT22;18965;52.242;20.886;2023-03-16T16:36:09;7.90;55.70
32524;DHT22;18965;52.242;20.886;2023-03-16T16:38:36;7.70;55.80
32524;DHT22;18965;52.242;20.886;2023-03-16T16:41:06;7.60;56.00
32524;DHT22;18965;52.242;20.886;2023-03-16T16:43:36;7.60;56.30
32524;DHT22;18965;52.242;20.886;2023-03-16T16:46:04;7.40;56.40
32524;DHT22;18965;52.242;20.886;2023-03-16T16:48:34;7.40;56.60
32524;DHT22;18965;52.242;20.886;2023-03-16T16:51:02;7.20;56.80
32524;DHT22;18965;52.242;20.886;2023-03-16T16:53:28;7.20;57.00
32524;DHT22;18965;52.242;20.886;2023-03-16T16:55:54;7.00;57.20
32524;DHT22;18965;52.242;20.886;2023-03-16T16:58:21;6.90;57.40
32524;DHT22;18965;52.242;20.886;2023-03-16T17:00:51;6.90;57.50
32524;DHT22;18965;52.242;20.886;2023-03-16T17:03:27;6.80;57.70
32524;DHT22;18965;52.242;20.886;2023-03-16T17:05:56;6.70;57.90